• Join FlightAware (Why Join?)
  • Login
  • US Flag 
08:45PM EDT


 

Airport Tracker/Info


-or-


 

Live Flight TrackerFlight Track Log ✈ EJA102 ✈ 27-Jun-2013 ✈ KTEB - KMVY

Flight Track Log - Related Links

Times and Time Zones

All times are in EDT time to prevent confusion due to time zone crossing. See the EJA102 flight status page for this flight to view local times or setup timezone preferences in your user account.

Time Position Orientation Groundspeed Altitude Reporting Facility
EDT Latitude Longitude Course Direction KTS MPH feet Rate Location/Type
08:44PM 40.8333 -74.1000 258° West 168 193 1,300  Level New York TRACON
08:45PM 40.8167 -74.2000 258° West 249 287 2,700 1,860 Climbing New York TRACON
08:46PM 40.8500 -74.2500 311° West 284 327 5,000 1,680 Climbing New York TRACON
08:47PM 40.9333 -74.2333 North 295 339 6,000 420 Climbing New York TRACON
08:48PM 41.0167 -74.2000 17° North 299 344 6,000  Level New York TRACON
08:49PM 41.1000 -74.1667 17° North 296 341 6,000 660 Level New York TRACON
08:50PM 41.1500 -74.0833 51° Northeast 274 315 7,400 1,560 Climbing New York TRACON
08:51PM 41.1667 -74.0000 75° East 281 323 9,000 840 Climbing New York TRACON
08:52PM 41.2000 -73.9000 66° East 289 333 9,000  Level New York TRACON
08:53PM 41.2333 -73.8000 66° East 286 329 9,000  Level New York TRACON
08:54PM 41.2500 -73.7000 77° East 287 330 9,000  Level New York TRACON
08:55PM 41.2833 -73.6000 66° East 294 338 9,000  Level New York TRACON
08:56PM 41.3167 -73.5000 66° East 299 344 9,000  Level New York TRACON
08:57PM 41.3500 -73.4000 66° East 301 346 9,000  Level New York TRACON
08:58PM 41.3800 -73.3033 68° East 303 349 9,100  Climbing Boston Center
08:59PM 41.4292 -73.1544 66° East 306 352 9,000 -60 Descending Boston Center
09:00PM 41.4692 -73.0439 64° Northeast 305 351 9,000  Level Boston Center
09:01PM 41.5031 -72.9500 64° Northeast 306 352 9,000  Level Boston Center
09:02PM 41.5389 -72.8478 65° Northeast 306 352 9,000  Level Boston Center
09:03PM 41.5539 -72.7508 78° East 300 345 9,000  Level Boston Center
09:04PM 41.5436 -72.6397 97° East 298 343 9,000  Level Boston Center
09:05PM 41.5397 -72.5400 93° East 298 343 9,100 -420 Climbing Boston Center
09:06PM 41.5314 -72.4289 96° East 298 343 8,200 -1,020 Descending Boston Center
09:07PM 41.5022 -72.3292 111° Southeast 299 344 7,100 -1,080 Descending Boston Center
09:08PM 41.4542 -72.2517 130° Southeast 264 304 6,100 -1,020 Descending Boston Center
09:09PM 41.4289 -72.1633 111° Southeast 289 333 5,200 -600 Descending Boston Center
09:10PM 41.4244 -72.0664 93° East 270 311 5,000 -120 Descending Boston Center
09:11PM 41.4117 -71.9669 100° East 270 311 5,000  Level Boston Center
09:12PM 41.4028 -71.8700 97° East 269 310 5,000  Level Boston Center
09:13PM 41.3939 -71.7650 96° East 287 330 5,000  Level Boston Center
09:14PM 41.3828 -71.6600 98° East 288 331 5,000  Level Boston Center
09:15PM 41.3736 -71.5467 96° East 288 331 5,000  Level Boston Center
09:16PM 41.3625 -71.4583 99° East 287 330 5,000  Level Boston Center
09:17PM 41.3633 -71.3450 89° East 292 336 5,000  Level Boston Center
09:19PM 41.3667 -71.1629 90° East  Level FlightAware Approximate
09:26PM 41.3934 -70.6139 North  Level Estimated
09:27PM 41.3934 -70.6139 North  Level Estimated
09:28PM 41.3934 -70.6139 North  Level Estimated
09:29PM 41.3934 -70.6139 North  Level Estimated